Time;durP1;ratioP1;P1;durP2;ratioP2;P2;SDS_P1;SDS_P2;PMS_P1;PMS_P2;Temp;Humidity;BMP_temperature;BMP_pressure;BME280_temperature;BME280_humidity;BME280_pressure;Samples;Min_cycle;Max_cycle;Signal;HPM_P1;HPM_P2
2023/01/25 00:01:33;;;;;;;5.72;5.13;;;17.00;38.90;;;;;;5116496;28;20213;-71
2023/01/25 00:04:00;;;;;;;6.13;5.30;;;17.00;38.90;;;;;;5116632;28;20639;-71
2023/01/25 00:06:28;;;;;;;5.60;5.10;;;17.00;38.90;;;;;;5116442;28;20216;-71
2023/01/25 00:08:55;;;;;;;5.78;5.18;;;17.00;38.90;;;;;;5116263;28;20647;-72
2023/01/25 00:11:22;;;;;;;6.53;5.85;;;17.00;38.90;;;;;;5116253;28;20632;-71
2023/01/25 00:13:49;;;;;;;6.25;5.53;;;17.00;38.90;;;;;;5116322;28;20222;-72
2023/01/25 00:16:16;;;;;;;6.78;6.07;;;17.00;38.90;;;;;;5116209;28;20225;-71
2023/01/25 00:18:45;;;;;;;6.90;5.53;;;16.90;38.80;;;;;;5116226;28;20187;-71
2023/01/25 00:21:13;;;;;;;6.13;5.53;;;17.00;38.90;;;;;;5115959;28;20262;-71
2023/01/25 00:23:40;;;;;;;6.28;5.68;;;17.00;38.90;;;;;;5116088;28;20189;-72
2023/01/25 00:26:07;;;;;;;6.28;5.68;;;17.00;38.90;;;;;;5115726;28;20262;-71
2023/01/25 00:28:34;;;;;;;6.10;5.47;;;17.00;38.90;;;;;;5116341;28;20194;-71
2023/01/25 00:31:02;;;;;;;6.75;5.70;;;16.90;38.80;;;;;;5115833;28;20213;-71
2023/01/25 00:33:39;;;;;;;6.10;5.50;;;16.90;38.80;;;;;;5115446;28;20221;-71
2023/01/25 00:36:36;;;;;;;6.50;5.90;;;16.90;38.80;;;;;;5115782;28;20270;-71
2023/01/25 00:39:05;;;;;;;6.85;5.55;;;16.90;38.80;;;;;;5112130;28;20197;-71
2023/01/25 00:41:32;;;;;;;6.32;5.57;;;16.90;38.80;;;;;;5115403;28;20216;-71
2023/01/25 00:44:00;;;;;;;7.30;5.57;;;16.90;38.80;;;;;;5115755;28;20239;-71
2023/01/25 00:46:27;;;;;;;6.18;5.57;;;16.90;38.80;;;;;;5115529;28;20217;-71
2023/01/25 00:48:55;;;;;;;6.43;5.82;;;16.90;38.80;;;;;;5115591;28;20242;-71
2023/01/25 00:51:23;;;;;;;7.50;5.90;;;16.90;38.80;;;;;;5115533;28;20209;-71
2023/01/25 00:53:51;;;;;;;7.38;5.47;;;16.90;38.80;;;;;;5115283;27;20186;-71
2023/01/25 00:56:20;;;;;;;6.13;5.07;;;16.90;38.80;;;;;;5115004;28;20225;-71
2023/01/25 00:58:47;;;;;;;6.15;5.55;;;16.90;38.80;;;;;;5115122;28;20230;-72
2023/01/25 01:01:14;;;;;;;5.95;5.35;;;16.90;38.80;;;;;;5114660;28;20624;-71
2023/01/25 01:03:41;;;;;;;5.72;5.15;;;16.90;38.80;;;;;;5115320;28;20247;-71
2023/01/25 01:06:11;;;;;;;6.55;5.57;;;16.90;39.50;;;;;;5114838;28;20209;-71
2023/01/25 01:08:40;;;;;;;6.03;5.43;;;16.90;38.80;;;;;;5115244;28;20238;-71
2023/01/25 01:11:10;;;;;;;6.18;5.57;;;16.80;38.70;;;;;;5114920;28;20243;-71
2023/01/25 01:13:38;;;;;;;6.43;5.53;;;16.80;38.70;;;;;;5115155;28;20193;-71
2023/01/25 01:16:10;;;;;;;6.03;5.45;;;16.90;38.80;;;;;;5114985;28;20236;-71
2023/01/25 01:18:39;;;;;;;6.32;5.72;;;16.90;38.80;;;;;;5115052;28;20193;-71
2023/01/25 01:21:06;;;;;;;6.25;5.53;;;16.80;38.70;;;;;;5114829;28;20251;-71
2023/01/25 01:23:34;;;;;;;6.82;5.70;;;16.80;38.70;;;;;;5114667;28;20186;-71
2023/01/25 01:26:02;;;;;;;6.60;5.50;;;16.80;38.70;;;;;;5114957;28;20217;-72
2023/01/25 01:28:30;;;;;;;6.53;5.85;;;16.80;38.70;;;;;;5114556;27;20636;-71
2023/01/25 01:31:02;;;;;;;6.22;5.63;;;16.80;38.80;;;;;;5114728;28;20217;-71
2023/01/25 01:33:29;;;;;;;6.60;5.90;;;16.80;39.40;;;;;;5115255;28;20225;-71
2023/01/25 01:35:56;;;;;;;6.35;5.75;;;16.80;38.70;;;;;;5114572;28;20286;-71
2023/01/25 01:38:23;;;;;;;6.60;5.90;;;16.80;38.80;;;;;;5114670;28;20193;-71
2023/01/25 01:40:51;;;;;;;7.45;6.30;;;16.80;38.80;;;;;;5114248;28;20258;-71
2023/01/25 01:43:20;;;;;;;6.60;5.95;;;16.80;38.90;;;;;;5114563;28;20189;-71
2023/01/25 01:45:58;;;;;;;6.70;5.97;;;16.80;38.80;;;;;;5114409;28;20278;-72
2023/01/25 01:48:33;;;;;;;6.53;5.93;;;16.80;38.90;;;;;;5114460;28;20236;-71
2023/01/25 01:51:03;;;;;;;6.13;5.53;;;16.70;38.80;;;;;;5113951;28;20220;-71
2023/01/25 01:53:33;;;;;;;6.28;5.68;;;16.80;39.00;;;;;;5114116;28;20186;-71
2023/01/25 01:56:04;;;;;;;6.53;5.85;;;16.80;39.00;;;;;;5113909;28;20627;-72
2023/01/25 01:58:32;;;;;;;6.05;5.47;;;16.80;39.00;;;;;;5114357;28;20604;-71
2023/01/25 02:01:00;;;;;;;6.32;5.68;;;16.80;39.00;;;;;;5113691;28;20209;-71
2023/01/25 02:03:29;;;;;;;6.47;5.72;;;16.80;39.00;;;;;;5114140;28;20185;-71
2023/01/25 02:06:03;;;;;;;6.88;6.05;;;16.70;39.00;;;;;;5113948;27;20698;-72
2023/01/25 02:08:35;;;;;;;6.78;6.07;;;16.70;39.00;;;;;;5114109;28;20185;-71
2023/01/25 02:11:03;;;;;;;6.60;5.75;;;16.70;39.00;;;;;;5113830;28;20213;-72
2023/01/25 02:13:32;;;;;;;6.53;5.93;;;16.70;39.00;;;;;;5114116;28;20189;-71
2023/01/25 02:15:59;;;;;;;6.28;5.68;;;16.70;39.00;;;;;;5113904;28;20213;-71
2023/01/25 02:18:26;;;;;;;6.53;5.80;;;16.70;39.00;;;;;;5113041;28;20193;-71
2023/01/25 02:20:58;;;;;;;7.05;6.35;;;16.70;39.00;;;;;;5113416;28;20263;-72
2023/01/25 02:23:31;;;;;;;7.30;6.50;;;16.70;39.00;;;;;;5113787;28;20239;-71
2023/01/25 02:26:02;;;;;;;6.28;5.60;;;16.70;39.00;;;;;;5113377;28;20217;-71
2023/01/25 02:28:34;;;;;;;7.18;6.47;;;16.70;39.00;;;;;;5113349;28;20181;-71
2023/01/25 02:31:01;;;;;;;6.28;5.68;;;16.70;39.00;;;;;;5113470;28;20212;-71
2023/01/25 02:33:28;;;;;;;6.47;5.78;;;16.70;39.00;;;;;;5113289;28;20310;-71
2023/01/25 02:36:00;;;;;;;6.18;5.57;;;16.70;39.00;;;;;;5113132;28;20246;-71
2023/01/25 02:38:30;;;;;;;6.60;5.90;;;16.70;39.00;;;;;;5114608;28;20193;-71
2023/01/25 02:41:04;;;;;;;5.70;5.10;;;16.70;39.00;;;;;;5113310;28;20209;-71
2023/01/25 02:43:32;;;;;;;6.88;6.18;;;16.70;39.00;;;;;;5113120;28;20215;-71
2023/01/25 02:46:09;;;;;;;6.35;5.75;;;16.60;39.00;;;;;;5113051;28;20213;-71
2023/01/25 02:48:36;;;;;;;7.18;5.53;;;16.70;39.10;;;;;;5113288;28;20570;-71
2023/01/25 02:51:07;;;;;;;6.80;5.70;;;16.60;39.00;;;;;;5114272;28;20213;-71
2023/01/25 02:53:34;;;;;;;6.57;5.97;;;16.70;39.00;;;;;;5113271;28;20193;-71
2023/01/25 02:56:03;;;;;;;6.13;5.53;;;16.70;39.10;;;;;;5112716;28;20213;-71
2023/01/25 02:58:30;;;;;;;6.80;6.10;;;16.70;39.10;;;;;;5113219;28;20637;-71
2023/01/25 03:00:58;;;;;;;7.47;6.68;;;16.60;39.00;;;;;;5112689;28;20244;-71
2023/01/25 03:03:25;;;;;;;7.30;6.50;;;16.70;39.10;;;;;;5113692;28;20191;-71
2023/01/25 03:05:52;;;;;;;7.55;6.75;;;16.60;39.00;;;;;;5112647;28;20213;-72
2023/01/25 03:08:20;;;;;;;6.70;6.00;;;16.60;39.00;;;;;;5112788;28;20242;-71
2023/01/25 03:10:47;;;;;;;6.40;5.78;;;16.70;39.10;;;;;;5112835;28;20224;-71
2023/01/25 03:13:16;;;;;;;6.63;6.03;;;16.60;39.10;;;;;;5112748;28;20190;-71
2023/01/25 03:15:43;;;;;;;6.93;6.22;;;16.60;39.10;;;;;;5112922;28;20217;-71
2023/01/25 03:18:10;;;;;;;6.93;6.20;;;16.60;39.10;;;;;;5112760;28;20666;-71
2023/01/25 03:20:37;;;;;;;7.43;6.72;;;16.60;39.10;;;;;;5112653;28;20212;-71
2023/01/25 03:23:04;;;;;;;7.25;6.53;;;16.60;39.10;;;;;;5112353;28;20666;-71
2023/01/25 03:25:31;;;;;;;6.63;5.93;;;16.60;39.10;;;;;;5112297;28;20623;-71
2023/01/25 03:27:58;;;;;;;7.22;6.53;;;16.60;39.10;;;;;;5112757;28;20262;-71
2023/01/25 03:30:26;;;;;;;8.23;6.80;;;16.60;39.20;;;;;;5112161;28;20239;-71
2023/01/25 03:32:53;;;;;;;6.57;5.72;;;16.60;39.20;;;;;;5111837;28;20233;-72
2023/01/25 03:35:20;;;;;;;7.15;6.45;;;16.60;39.20;;;;;;5112560;28;20221;-71
2023/01/25 03:37:48;;;;;;;7.40;6.57;;;16.60;39.20;;;;;;5112502;28;20695;-71
2023/01/25 03:40:15;;;;;;;7.68;6.28;;;16.50;39.80;;;;;;5112183;28;20261;-72
2023/01/25 03:42:42;;;;;;;6.95;6.25;;;16.60;39.20;;;;;;5112217;28;20210;-71
2023/01/25 03:45:13;;;;;;;6.47;5.82;;;16.60;39.20;;;;;;5112435;28;20258;-71
2023/01/25 03:47:42;;;;;;;6.65;6.05;;;16.60;39.20;;;;;;5112203;28;20196;-71
2023/01/25 03:50:10;;;;;;;7.30;6.43;;;16.60;39.20;;;;;;5112133;28;20268;-71
2023/01/25 03:52:40;;;;;;;7.50;6.35;;;16.60;39.30;;;;;;5112180;28;20245;-71
2023/01/25 03:55:08;;;;;;;7.00;6.30;;;16.50;39.20;;;;;;5112046;28;20300;-71
2023/01/25 03:57:35;;;;;;;6.60;5.80;;;16.50;39.20;;;;;;5112387;28;20213;-71
2023/01/25 04:00:03;;;;;;;6.95;6.30;;;16.60;39.30;;;;;;5112310;28;20185;-71
2023/01/25 04:02:31;;;;;;;7.57;6.78;;;16.50;39.20;;;;;;5112384;28;20219;-71
2023/01/25 04:04:59;;;;;;;6.40;5.80;;;16.60;39.90;;;;;;5112335;28;20246;-71
2023/01/25 04:07:26;;;;;;;6.65;5.68;;;16.60;39.30;;;;;;5112060;28;20189;-71
2023/01/25 04:09:53;;;;;;;7.05;5.50;;;16.60;39.30;;;;;;5112298;28;20235;-72
2023/01/25 04:12:20;;;;;;;8.65;6.32;;;16.50;39.20;;;;;;5112145;28;20190;-71
2023/01/25 04:14:47;;;;;;;6.95;6.25;;;16.50;39.20;;;;;;5111869;28;20230;-73
2023/01/25 04:17:14;;;;;;;6.03;5.43;;;16.50;39.20;;;;;;5111797;28;20628;-71
2023/01/25 04:19:42;;;;;;;7.13;6.43;;;16.50;39.20;;;;;;5111937;28;20186;-71
2023/01/25 04:22:11;;;;;;;7.22;6.50;;;16.50;39.20;;;;;;5112118;28;20209;-71
2023/01/25 04:24:38;;;;;;;7.70;6.57;;;16.50;39.30;;;;;;5111744;28;20225;-71
2023/01/25 04:27:07;;;;;;;7.43;6.63;;;16.50;39.20;;;;;;5109909;28;20251;-71
2023/01/25 04:29:34;;;;;;;6.85;6.10;;;16.50;39.30;;;;;;5094556;28;20198;-71
2023/01/25 04:32:02;;;;;;;7.65;6.90;;;16.50;39.30;;;;;;5091254;28;20256;-71
2023/01/25 04:34:29;;;;;;;6.70;6.00;;;16.50;39.30;;;;;;5091280;28;20643;-72
2023/01/25 04:36:56;;;;;;;7.40;6.60;;;16.50;39.30;;;;;;5091512;28;20362;-73
2023/01/25 04:39:25;;;;;;;6.85;6.15;;;16.50;39.30;;;;;;5091677;28;20190;-71
2023/01/25 04:41:52;;;;;;;6.28;5.68;;;16.40;39.30;;;;;;5093563;28;20760;-71
2023/01/25 04:44:19;;;;;;;7.13;6.43;;;16.50;39.30;;;;;;5095202;28;20604;-72
2023/01/25 04:46:47;;;;;;;5.93;5.35;;;16.40;39.30;;;;;;5095256;28;20240;-71
2023/01/25 04:49:14;;;;;;;6.75;6.03;;;16.50;39.30;;;;;;5095401;28;20182;-71
2023/01/25 04:51:41;;;;;;;6.70;6.00;;;16.40;39.30;;;;;;5094838;28;20240;-71
2023/01/25 04:54:09;;;;;;;7.40;6.57;;;16.40;39.30;;;;;;5094860;28;20644;-72
2023/01/25 04:56:37;;;;;;;6.78;6.10;;;16.50;39.40;;;;;;5095085;28;20218;-71
2023/01/25 04:59:04;;;;;;;6.88;6.18;;;16.40;39.30;;;;;;5094574;28;20271;-72
2023/01/25 05:01:32;;;;;;;7.03;6.32;;;16.40;39.30;;;;;;5093489;28;20224;-71
2023/01/25 05:03:59;;;;;;;6.70;6.10;;;16.50;39.40;;;;;;5095005;28;20623;-71
2023/01/25 05:06:26;;;;;;;7.68;6.70;;;16.40;39.30;;;;;;5094829;28;20300;-71
2023/01/25 05:08:53;;;;;;;7.20;6.50;;;16.40;39.30;;;;;;5094529;28;20235;-71
2023/01/25 05:11:20;;;;;;;7.72;6.50;;;16.40;39.30;;;;;;5094657;28;20218;-71
2023/01/25 05:13:50;;;;;;;8.07;6.45;;;16.40;39.30;;;;;;5094604;28;20243;-71
2023/01/25 05:16:18;;;;;;;7.63;6.82;;;16.40;39.30;;;;;;5094338;28;20710;-71
2023/01/25 05:18:45;;;;;;;7.55;6.70;;;16.40;39.30;;;;;;5094517;28;20218;-71
2023/01/25 05:21:56;;;;;;;7.38;6.22;;;16.50;39.40;;;;;;5094261;28;20695;-71
2023/01/25 05:24:13;;;;;;;7.00;6.30;;;16.40;39.30;;;;;;5114423;28;20208;-71
2023/01/25 05:29:26;;;;;;;7.00;6.30;;;16.40;39.40;;;;;;5114529;28;20215;-71
2023/01/25 05:31:53;;;;;;;7.05;6.35;;;16.40;39.40;;;;;;5114828;28;20221;-71
2023/01/25 05:34:20;;;;;;;7.53;6.78;;;16.40;39.40;;;;;;5114389;27;20237;-71
2023/01/25 05:36:47;;;;;;;6.25;5.65;;;16.40;39.40;;;;;;5114641;28;20217;-71
2023/01/25 05:39:14;;;;;;;6.78;6.07;;;16.40;39.40;;;;;;5114185;28;20690;-71
2023/01/25 05:41:41;;;;;;;6.25;5.65;;;16.40;39.40;;;;;;5115768;28;20345;-71
2023/01/25 05:44:08;;;;;;;5.90;5.30;;;16.40;39.40;;;;;;5114536;28;20242;-72
2023/01/25 05:46:37;;;;;;;6.53;5.85;;;16.40;39.40;;;;;;5114509;28;20217;-71
2023/01/25 05:49:04;;;;;;;5.95;5.38;;;16.40;39.50;;;;;;5112964;28;20241;-71
2023/01/25 05:51:32;;;;;;;6.50;5.72;;;16.40;39.50;;;;;;5114255;28;20212;-71
2023/01/25 05:53:59;;;;;;;6.28;5.68;;;16.50;39.50;;;;;;5114420;28;20181;-71
2023/01/25 05:56:26;;;;;;;6.43;5.82;;;16.40;39.50;;;;;;5114000;28;20228;-71
2023/01/25 05:58:54;;;;;;;5.65;5.15;;;16.50;39.60;;;;;;5113923;28;20698;-71
2023/01/25 06:01:21;;;;;;;6.15;5.55;;;16.50;39.50;;;;;;5114088;28;20269;-71
2023/01/25 06:03:50;;;;;;;6.40;5.63;;;16.50;39.60;;;;;;5114150;28;20223;-71
2023/01/25 06:06:18;;;;;;;5.70;5.10;;;16.50;39.50;;;;;;5114116;28;20217;-71
2023/01/25 06:08:46;;;;;;;5.82;5.25;;;16.50;39.50;;;;;;5113628;28;20717;-71
2023/01/25 06:11:14;;;;;;;5.72;5.22;;;16.60;39.60;;;;;;5113564;28;20220;-72
2023/01/25 06:13:42;;;;;;;4.88;4.38;;;16.60;39.70;;;;;;5113761;28;20185;-72
2023/01/25 06:16:10;;;;;;;5.63;5.13;;;16.60;39.70;;;;;;5113813;28;20213;-72
2023/01/25 06:18:37;;;;;;;5.80;5.20;;;16.60;39.70;;;;;;5113645;28;20282;-71
2023/01/25 06:21:06;;;;;;;5.28;4.78;;;16.70;39.80;;;;;;5113503;28;20262;-71
2023/01/25 06:23:33;;;;;;;4.35;3.95;;;16.70;39.80;;;;;;5113490;28;20202;-71
2023/01/25 06:26:02;;;;;;;4.47;4.07;;;16.70;40.00;;;;;;5113332;28;20262;-71
2023/01/25 06:28:31;;;;;;;4.40;4.00;;;16.70;39.80;;;;;;5113527;28;20639;-71
2023/01/25 06:31:04;;;;;;;4.47;4.07;;;16.70;39.80;;;;;;5113498;28;20227;-71
2023/01/25 06:33:31;;;;;;;3.90;3.50;;;16.80;39.80;;;;;;5113105;28;20578;-71
2023/01/25 06:36:01;;;;;;;3.95;3.55;;;16.80;39.80;;;;;;5113402;28;20221;-71
2023/01/25 06:38:29;;;;;;;4.32;3.92;;;16.80;39.80;;;;;;5112989;28;20217;-71
2023/01/25 06:41:00;;;;;;;3.97;3.63;;;16.80;39.80;;;;;;5112707;28;20217;-71
2023/01/25 06:43:28;;;;;;;4.05;3.65;;;16.80;39.80;;;;;;5113114;28;20193;-71
2023/01/25 06:45:58;;;;;;;4.03;3.63;;;16.80;39.80;;;;;;5113070;28;20691;-71
2023/01/25 06:48:25;;;;;;;3.95;3.55;;;16.90;39.80;;;;;;5113178;28;20189;-71
2023/01/25 06:50:57;;;;;;;4.28;3.88;;;16.90;39.80;;;;;;5112799;28;20213;-71
2023/01/25 06:53:27;;;;;;;4.07;3.67;;;16.90;39.80;;;;;;5112967;28;20276;-71
2023/01/25 06:56:00;;;;;;;3.85;3.50;;;16.90;39.80;;;;;;5113011;28;20296;-71
2023/01/25 06:58:27;;;;;;;4.35;3.95;;;16.90;39.80;;;;;;5113103;28;20209;-71
2023/01/25 07:00:54;;;;;;;4.10;3.70;;;16.90;39.80;;;;;;5112801;28;20217;-71
2023/01/25 07:03:21;;;;;;;4.70;4.30;;;17.00;39.80;;;;;;5112325;28;20235;-71
2023/01/25 07:05:49;;;;;;;3.78;3.47;;;16.90;39.80;;;;;;5112861;28;20213;-72
2023/01/25 07:08:20;;;;;;;4.38;3.85;;;16.90;39.70;;;;;;5113028;28;20193;-72
2023/01/25 07:10:54;;;;;;;3.80;3.50;;;17.00;39.80;;;;;;5113085;28;20270;-72
2023/01/25 07:13:23;;;;;;;3.85;3.55;;;17.00;39.80;;;;;;5112752;28;20184;-72
2023/01/25 07:15:55;;;;;;;4.75;4.22;;;17.10;39.90;;;;;;5113125;28;20217;-71
2023/01/25 07:18:22;;;;;;;4.93;4.43;;;17.10;39.80;;;;;;5112389;28;20235;-72
2023/01/25 07:20:49;;;;;;;4.53;4.13;;;17.10;39.80;;;;;;5112697;28;20270;-72
2023/01/25 07:23:16;;;;;;;5.20;4.70;;;17.20;39.80;;;;;;5114313;28;20181;-72
2023/01/25 07:25:47;;;;;;;4.47;3.83;;;17.20;39.80;;;;;;5111033;28;20278;-72
2023/01/25 07:28:14;;;;;;;4.75;4.10;;;17.20;39.70;;;;;;5109199;28;20250;-72
2023/01/25 07:30:43;;;;;;;7.85;4.78;;;17.30;39.70;;;;;;5112602;28;20213;-72
2023/01/25 07:33:11;;;;;;;5.22;4.03;;;17.30;39.70;;;;;;5111913;28;20220;-72
2023/01/25 07:35:38;;;;;;;4.05;3.63;;;17.30;39.60;;;;;;5112516;28;20262;-71
2023/01/25 07:38:05;;;;;;;4.63;4.10;;;17.30;39.60;;;;;;5112290;28;20625;-71
2023/01/25 07:40:32;;;;;;;5.20;4.60;;;17.40;39.60;;;;;;5110570;28;20262;-73
2023/01/25 07:42:59;;;;;;;5.22;4.35;;;17.40;39.70;;;;;;5090926;28;20201;-72
2023/01/25 07:45:29;;;;;;;7.40;4.88;;;17.50;39.90;;;;;;5093324;28;20243;-72
2023/01/25 07:47:58;;;;;;;77.20;43.17;;;17.50;39.60;;;;;;5092030;28;20205;-73
2023/01/25 07:50:26;;;;;;;81.57;45.70;;;17.50;39.40;;;;;;5097348;28;20192;-73
2023/01/25 07:52:53;;;;;;;132.18;49.58;;;17.60;39.40;;;;;;5111032;28;20186;-72
2023/01/25 07:55:20;;;;;;;101.63;40.13;;;17.70;39.50;;;;;;5094573;28;20255;-72
2023/01/25 07:57:47;;;;;;;92.50;35.53;;;17.70;39.40;;;;;;5090934;28;20193;-72
2023/01/25 08:00:15;;;;;;;70.13;30.00;;;17.80;39.50;;;;;;5100797;28;20193;-72
2023/01/25 08:02:42;;;;;;;70.47;27.70;;;17.80;39.50;;;;;;5102928;28;20209;-73
2023/01/25 08:05:11;;;;;;;62.35;26.73;;;17.90;39.60;;;;;;5108943;28;20236;-72
2023/01/25 08:07:38;;;;;;;45.13;21.83;;;17.90;39.60;;;;;;5111394;28;20189;-72
2023/01/25 08:10:06;;;;;;;49.05;21.55;;;18.00;39.70;;;;;;5110888;28;20215;-72
2023/01/25 08:12:34;;;;;;;36.20;19.10;;;18.00;39.70;;;;;;5102635;28;20229;-73
2023/01/25 08:15:01;;;;;;;43.95;17.13;;;18.10;39.70;;;;;;5090626;28;20606;-72
2023/01/25 08:17:31;;;;;;;32.78;15.65;;;18.10;39.70;;;;;;5108395;28;20469;-73
2023/01/25 08:19:58;;;;;;;30.85;13.75;;;18.10;39.60;;;;;;5114914;28;20220;-72
2023/01/25 08:22:28;;;;;;;26.67;13.70;;;18.10;40.10;;;;;;5115017;28;20209;-73
2023/01/25 08:24:55;;;;;;;67.82;37.03;;;18.20;39.60;;;;;;5114648;28;20721;-73
2023/01/25 08:27:22;;;;;;;100.85;52.90;;;18.20;39.50;;;;;;5114603;28;20221;-72
2023/01/25 08:29:52;;;;;;;178.00;90.70;;;18.20;39.50;;;;;;5105488;28;20201;-73
2023/01/25 08:32:20;;;;;;;167.60;82.20;;;18.30;40.60;;;;;;5113172;28;20711;-71
2023/01/25 08:37:31;;;;;;;129.40;65.32;;;18.40;39.50;;;;;;5063453;28;20736;-71
2023/01/25 08:39:58;;;;;;;110.80;60.05;;;18.40;40.00;;;;;;5062445;28;20230;-72
2023/01/25 08:42:26;;;;;;;92.05;51.28;;;18.40;39.70;;;;;;5071051;28;20219;-71
2023/01/25 08:44:53;;;;;;;83.93;45.88;;;18.50;39.80;;;;;;5053137;28;20191;-73
2023/01/25 08:47:20;;;;;;;73.55;42.20;;;18.50;39.90;;;;;;5049951;28;20219;-72
2023/01/25 08:49:47;;;;;;;64.70;37.53;;;18.60;39.90;;;;;;5053881;28;20260;-72
2023/01/25 08:52:14;;;;;;;68.15;34.72;;;18.60;39.60;;;;;;5054793;28;20255;-72
2023/01/25 08:54:43;;;;;;;56.60;32.97;;;18.60;39.50;;;;;;5073544;28;20209;-72
2023/01/25 08:57:10;;;;;;;56.25;30.77;;;18.50;39.50;;;;;;5099858;28;20268;-72
2023/01/25 08:59:38;;;;;;;54.15;29.33;;;18.50;39.50;;;;;;5099637;28;20225;-72
2023/01/25 09:02:07;;;;;;;47.55;25.90;;;18.60;39.50;;;;;;5112376;28;20846;-71
2023/01/25 09:04:35;;;;;;;44.10;25.20;;;18.60;39.50;;;;;;5073379;28;20202;-72
2023/01/25 09:07:04;;;;;;;41.47;24.52;;;18.60;39.50;;;;;;5092429;28;20225;-71
2023/01/25 09:09:32;;;;;;;42.10;22.92;;;18.60;39.50;;;;;;5092135;28;20247;-72
2023/01/25 09:12:00;;;;;;;35.90;21.85;;;18.60;39.50;;;;;;5092694;28;20279;-71
2023/01/25 09:14:27;;;;;;;35.78;20.13;;;18.60;39.40;;;;;;5106443;28;20231;-71
2023/01/25 09:16:54;;;;;;;34.22;19.48;;;18.60;39.40;;;;;;5112378;28;20228;-72
2023/01/25 09:19:22;;;;;;;33.85;18.95;;;18.70;39.40;;;;;;5112402;28;20559;-72
2023/01/25 09:21:49;;;;;;;27.85;16.83;;;18.60;39.30;;;;;;5109655;28;20221;-71
2023/01/25 09:24:16;;;;;;;27.75;16.08;;;18.70;39.30;;;;;;5101581;28;20251;-72
2023/01/25 09:26:44;;;;;;;26.98;15.82;;;18.70;39.30;;;;;;5110549;28;20778;-71
2023/01/25 09:29:12;;;;;;;24.33;15.27;;;18.70;39.20;;;;;;5101713;28;20204;-72
2023/01/25 09:31:42;;;;;;;23.63;14.68;;;18.70;39.10;;;;;;5112322;28;20376;-71
2023/01/25 09:34:10;;;;;;;22.58;13.40;;;18.70;39.00;;;;;;5102566;28;20795;-71
2023/01/25 09:36:37;;;;;;;21.25;12.93;;;18.70;39.00;;;;;;5093049;28;20217;-72
2023/01/25 09:39:04;;;;;;;23.08;12.65;;;18.70;38.90;;;;;;5092924;28;20239;-71
2023/01/25 09:42:01;;;;;;;20.35;11.73;;;18.70;38.80;;;;;;5095361;28;20213;-71
2023/01/25 09:44:49;;;;;;;18.13;10.98;;;18.70;38.80;;;;;;5109585;27;20612;-74
2023/01/25 09:47:23;;;;;;;18.95;11.70;;;18.80;39.30;;;;;;5112116;28;20278;-72
2023/01/25 09:50:17;;;;;;;16.80;10.30;;;18.80;39.30;;;;;;5108014;28;20277;-73
2023/01/25 09:53:16;;;;;;;17.27;9.50;;;18.80;39.20;;;;;;5092841;28;20213;-72
2023/01/25 09:55:44;;;;;;;13.25;9.25;;;18.90;39.30;;;;;;5092690;28;20236;-76
2023/01/25 09:58:18;;;;;;;12.93;8.52;;;18.80;39.10;;;;;;5092456;28;20218;-76
2023/01/25 10:00:51;;;;;;;15.30;8.00;;;18.90;39.10;;;;;;5093205;28;20286;-74
2023/01/25 10:03:23;;;;;;;10.82;6.30;;;18.90;39.00;;;;;;5104127;28;20273;-74
2023/01/25 10:05:54;;;;;;;10.90;6.07;;;18.80;39.00;;;;;;5110260;28;20194;-74
2023/01/25 10:08:28;;;;;;;9.45;6.70;;;18.90;39.00;;;;;;5091323;28;20260;-73
2023/01/25 10:11:02;;;;;;;13.38;6.38;;;18.90;39.10;;;;;;5087488;28;20211;-74
2023/01/25 10:13:30;;;;;;;10.18;6.50;;;18.90;39.00;;;;;;5093031;28;20222;-75
2023/01/25 10:16:05;;;;;;;8.68;6.13;;;18.90;38.90;;;;;;5075342;28;20274;-74
2023/01/25 10:18:37;;;;;;;10.45;6.18;;;18.90;38.90;;;;;;5105149;27;20228;-76
2023/01/25 10:21:10;;;;;;;9.40;5.35;;;18.90;39.00;;;;;;5108025;28;20225;-75
2023/01/25 10:24:12;;;;;;;9.55;5.35;;;18.90;38.90;;;;;;5106978;28;20234;-75
2023/01/25 10:26:43;;;;;;;7.95;5.30;;;18.90;38.90;;;;;;5091103;28;20270;-75
2023/01/25 10:29:13;;;;;;;8.18;5.13;;;18.90;39.00;;;;;;5098502;27;20192;-75
2023/01/25 10:31:49;;;;;;;5.97;4.78;;;18.90;39.00;;;;;;5091472;28;20213;-75
2023/01/25 10:34:22;;;;;;;6.72;4.95;;;18.90;39.60;;;;;;5104421;28;20228;-74
2023/01/25 10:36:54;;;;;;;7.63;4.75;;;18.90;39.00;;;;;;5111159;28;20273;-76
2023/01/25 10:39:21;;;;;;;6.88;4.65;;;18.90;39.00;;;;;;5111503;28;20328;-73
2023/01/25 10:41:54;;;;;;;6.82;4.18;;;18.90;38.80;;;;;;5112127;28;20224;-72
2023/01/25 10:44:23;;;;;;;5.95;4.72;;;18.90;38.80;;;;;;5111799;28;20663;-72
2023/01/25 10:46:59;;;;;;;5.40;4.07;;;18.90;38.80;;;;;;5111841;28;20221;-72
2023/01/25 10:49:36;;;;;;;5.22;4.07;;;18.90;38.90;;;;;;5109092;28;20240;-72
2023/01/25 10:52:14;;;;;;;7.00;4.38;;;19.00;38.90;;;;;;5094536;28;20709;-72
2023/01/25 10:54:42;;;;;;;5.57;4.30;;;18.90;38.70;;;;;;5091027;28;20185;-71
2023/01/25 10:57:13;;;;;;;4.50;3.90;;;18.90;38.80;;;;;;5103084;28;20213;-71
2023/01/25 10:59:44;;;;;;;4.63;4.07;;;19.00;39.50;;;;;;5108152;28;20731;-72
2023/01/25 11:02:39;;;;;;;4.30;3.65;;;19.00;38.90;;;;;;5094770;28;20707;-71
2023/01/25 11:05:29;;;;;;;5.05;3.75;;;19.00;38.80;;;;;;5091336;28;20281;-71
2023/01/25 11:07:57;;;;;;;5.40;3.90;;;19.00;38.90;;;;;;5090112;28;20217;-71
2023/01/25 11:10:30;;;;;;;4.65;3.97;;;19.00;38.80;;;;;;5091567;28;20243;-71
2023/01/25 11:13:22;;;;;;;4.88;3.95;;;19.00;38.90;;;;;;5091084;28;20640;-70
2023/01/25 11:15:52;;;;;;;4.53;3.65;;;19.00;38.70;;;;;;5091144;28;20190;-71
2023/01/25 11:18:24;;;;;;;4.03;3.35;;;19.00;38.80;;;;;;5096595;28;20205;-71
2023/01/25 11:21:06;;;;;;;4.43;3.60;;;19.00;38.80;;;;;;5111454;28;20224;-71
2023/01/25 11:23:34;;;;;;;4.95;4.10;;;19.00;38.80;;;;;;5111418;28;20767;-71
2023/01/25 11:26:43;;;;;;;5.45;3.67;;;19.00;38.70;;;;;;5093015;28;20202;-70
2023/01/25 11:29:16;;;;;;;3.40;3.10;;;19.00;38.70;;;;;;5109441;28;20693;-71
2023/01/25 11:31:50;;;;;;;4.63;3.60;;;19.10;38.80;;;;;;5111571;28;20238;-71
2023/01/25 11:34:24;;;;;;;3.78;3.35;;;19.10;38.70;;;;;;5092249;28;20224;-71
2023/01/25 11:37:14;;;;;;;3.50;3.17;;;19.00;38.70;;;;;;5111825;28;20220;-71
2023/01/25 11:39:56;;;;;;;4.32;3.50;;;19.00;38.50;;;;;;5093855;28;20273;-73
2023/01/25 11:46:00;;;;;;;3.75;3.17;;;19.10;38.60;;;;;;5093224;28;20233;-71
2023/01/25 11:49:09;;;;;;;4.30;3.30;;;19.10;38.60;;;;;;5091518;28;20217;-71
2023/01/25 11:51:54;;;;;;;4.30;3.10;;;19.10;38.40;;;;;;5052342;28;20187;-74
2023/01/25 11:54:50;;;;;;;3.72;3.33;;;19.10;38.50;;;;;;4994613;28;20707;-74
2023/01/25 11:57:38;;;;;;;4.32;3.35;;;19.10;38.50;;;;;;5013287;28;20236;-74
2023/01/25 12:00:29;;;;;;;4.55;3.40;;;19.10;38.50;;;;;;4996724;28;20303;-74
2023/01/25 12:03:33;;;;;;;3.20;2.90;;;19.10;38.40;;;;;;5013128;28;20220;-74
2023/01/25 12:06:13;;;;;;;3.63;3.30;;;19.10;38.40;;;;;;5001543;28;20197;-74
2023/01/25 12:09:07;;;;;;;3.45;3.15;;;19.10;38.50;;;;;;5012867;28;20710;-72
2023/01/25 12:11:48;;;;;;;4.15;3.40;;;19.10;38.20;;;;;;5019996;28;20225;-74
2023/01/25 12:14:23;;;;;;;3.67;3.25;;;19.10;38.20;;;;;;5071720;28;20680;-74
2023/01/25 12:17:04;;;;;;;3.40;3.08;;;19.10;38.30;;;;;;5061335;28;20774;-72
2023/01/25 12:19:54;;;;;;;4.32;3.60;;;19.10;38.20;;;;;;5067013;28;20254;-73
2023/01/25 12:22:41;;;;;;;3.80;3.20;;;19.10;38.10;;;;;;5092430;28;20690;-72
2023/01/25 12:25:21;;;;;;;3.85;3.47;;;19.10;38.20;;;;;;5113622;28;20273;-72
2023/01/25 12:28:11;;;;;;;3.55;3.25;;;19.10;38.20;;;;;;5114461;28;20395;-73
2023/01/25 12:30:49;;;;;;;3.72;3.42;;;19.10;38.20;;;;;;5114449;28;20663;-74
2023/01/25 12:33:26;;;;;;;4.28;3.63;;;19.10;38.20;;;;;;5078915;28;20229;-74
2023/01/25 12:36:00;;;;;;;4.28;3.85;;;19.10;38.20;;;;;;5114017;28;20201;-74
2023/01/25 12:38:34;;;;;;;4.18;3.78;;;19.10;37.90;;;;;;5112152;28;20223;-74
2023/01/25 12:41:15;;;;;;;3.53;3.20;;;19.10;38.10;;;;;;5078288;28;20696;-75
2023/01/25 12:43:50;;;;;;;3.80;3.50;;;19.10;38.10;;;;;;5114297;28;20243;-74
2023/01/25 12:46:27;;;;;;;5.18;4.13;;;19.10;38.20;;;;;;5079541;28;20197;-75
2023/01/25 12:49:02;;;;;;;5.13;4.18;;;19.10;37.90;;;;;;5077854;28;20220;-73
2023/01/25 12:51:39;;;;;;;7.07;4.38;;;19.10;38.10;;;;;;5105011;28;20572;-73
2023/01/25 12:54:19;;;;;;;4.95;4.20;;;19.10;38.10;;;;;;5096140;28;20260;-73
2023/01/25 12:56:57;;;;;;;4.38;3.92;;;19.10;37.90;;;;;;5093420;28;20230;-73
2023/01/25 12:59:32;;;;;;;4.70;4.20;;;19.10;38.10;;;;;;5091331;28;20783;-73
2023/01/25 13:02:17;;;;;;;10.27;9.18;;;19.10;38.00;;;;;;5095661;27;20274;-73
2023/01/25 13:05:04;;;;;;;6.25;5.65;;;19.20;38.10;;;;;;5106146;28;20201;-71
2023/01/25 13:07:43;;;;;;;5.50;5.00;;;19.10;38.10;;;;;;5073133;28;20610;-72
2023/01/25 13:10:19;;;;;;;4.88;4.38;;;19.10;38.10;;;;;;5101039;27;20228;-74
2023/01/25 13:13:03;;;;;;;19.08;8.68;;;19.10;38.00;;;;;;5031812;28;20221;-73